עמוד ראשי
METAR-TAF:

METAR-TAF

שדות תעופה :

Aoba Island, ונואטו

קו רוחב: 15-18-24S, קו אורך: 167-58-02E, גובה: 51מטר

תצפית מזג אוויר נוכחית

הדו"ח נערך לפני 12 שעות ו 56דקות, בשעה 21:00 UTC
רוח 5קשר מכיוון דרום-מזרח
טמפרטורת 27 צלסיוס
לחות 84%
לחץ 1013 hPa
ראות 10 קילומטר או יותר
מעט עננים בגובה 2500רגל

METAR: NVSG 142100Z 13005KT 9999 FEW025 27/24 Q1013

זמן: 20:56 (09:56 UTC)

תחזית

הדו"ח נערך לפני 4 שעות ו 56דקות, בשעה 05:00 UTC
תחזית בתוקף מ 15 ב 06 UTC עד 16 ב 06 UTC
רוח 5קשר מכיוון דרום-מזרח
ראות 10 קילומטר או יותר
עננים פזורים בגובה 2000רגל
יעשה מ
07 ב 00 UTC עד 09 ב 00 UTC
רוח 2קשר עם כיוונים משתנים

TAF: NVSG 150500Z 1506/1606 14005KT 9999 SCT020 BECMG 0700/0900 VRB02KT

תצפיות ותחזיות מזג אוויר לגבי יותר מ- 4,000 שדות תעופה ברחבי העולם. דוחות METAR ו- TAF.

התחנות הזמינות מסומנות בנקודות צהובות ואדומות על גבי המפה.

העבר את העכבר לנקודה הצבעונית על מנת לראות את שם התחנה.

לאחר מכן, לחץ כדי לראות את תוכן ואת תחזיות מזג האוויר.

כדי לשנות את המפה: לחץ על הכפתורים הירוקים עם הפלוס השחור כדי להתקרב; על הכפתור הירוק עם המקף כדי להתרחק; או בחיצים הירוקים למפות סמוכות.


METAR-TAF: